Time;durP1;ratioP1;P1;durP2;ratioP2;P2;SDS_P1;SDS_P2;PMS_P1;PMS_P2;Temp;Humidity;BMP_temperature;BMP_pressure;BME280_temperature;BME280_humidity;BME280_pressure;Samples;Min_cycle;Max_cycle;Signal;HPM_P1;HPM_P2
2024/04/11 00:01:02;;;;;;;4.57;1.90;;;;;;;6.69;100.00;97724.50;5406014;26;20697;-78
2024/04/11 00:03:30;;;;;;;4.13;2.00;;;;;;;6.71;100.00;97729.59;5413774;26;20330;-75
2024/04/11 00:05:56;;;;;;;2.77;1.70;;;;;;;6.65;100.00;97721.38;5408493;26;20343;-79
2024/04/11 00:08:24;;;;;;;3.50;2.03;;;;;;;6.54;100.00;97729.22;5408672;26;20628;-75
2024/04/11 00:10:52;;;;;;;4.50;2.63;;;;;;;6.70;100.00;97720.06;5408780;26;20306;-75
2024/04/11 00:13:21;;;;;;;4.93;2.20;;;;;;;6.58;100.00;97726.25;5420884;26;20317;-74
2024/04/11 00:15:46;;;;;;;3.73;2.10;;;;;;;6.58;100.00;97721.03;5401135;26;20277;-79
2024/04/11 00:18:14;;;;;;;2.37;1.57;;;;;;;6.62;100.00;97716.38;5423078;26;20626;-74
2024/04/11 00:20:40;;;;;;;3.37;2.17;;;;;;;6.56;100.00;97722.09;5408094;26;20413;-74
2024/04/11 00:23:08;;;;;;;2.90;1.73;;;;;;;6.52;100.00;97721.47;5405345;26;20243;-77
2024/04/11 00:25:34;;;;;;;2.63;1.77;;;;;;;6.19;100.00;97723.19;5413547;26;20274;-76
2024/04/11 00:28:05;;;;;;;2.70;2.00;;;;;;;6.36;100.00;97725.38;5413595;26;20233;-74
2024/04/11 00:30:30;;;;;;;4.43;2.23;;;;;;;6.31;100.00;97722.25;5414471;26;20308;-77
2024/04/11 00:32:59;;;;;;;3.93;2.23;;;;;;;6.48;100.00;97719.19;5415629;26;20302;-76
2024/04/11 00:35:25;;;;;;;3.33;1.80;;;;;;;6.50;100.00;97722.53;5412980;26;20742;-76
2024/04/11 00:37:53;;;;;;;3.33;1.70;;;;;;;6.47;100.00;97728.84;5413924;26;20294;-73
2024/04/11 00:40:20;;;;;;;2.83;1.70;;;;;;;6.19;100.00;97725.81;5415773;26;20289;-73
2024/04/11 00:42:48;;;;;;;2.93;1.80;;;;;;;6.36;100.00;97712.28;5422909;26;20242;-76
2024/04/11 00:45:17;;;;;;;3.63;1.87;;;;;;;6.45;100.00;97709.78;5411509;26;20265;-77
2024/04/11 00:47:45;;;;;;;1.70;1.50;;;;;;;6.28;100.00;97717.28;5410917;26;20995;-74
2024/04/11 00:50:11;;;;;;;2.80;1.63;;;;;;;5.99;100.00;97725.63;5414391;26;20877;-77
2024/04/11 00:52:43;;;;;;;2.33;1.90;;;;;;;6.25;100.00;97720.94;5403245;26;20272;-77
2024/04/11 00:55:10;;;;;;;2.30;1.63;;;;;;;6.26;100.00;97713.91;5405231;26;20781;-76
2024/04/11 00:57:39;;;;;;;2.03;1.50;;;;;;;6.07;100.00;97714.47;5411174;26;20254;-73
2024/04/11 01:00:10;;;;;;;2.30;1.60;;;;;;;6.09;100.00;97707.31;5413664;26;20771;-74
2024/04/11 01:02:42;;;;;;;2.43;1.63;;;;;;;6.16;100.00;97708.56;5409019;26;20227;-74
2024/04/11 01:05:07;;;;;;;3.10;1.80;;;;;;;5.99;100.00;97713.34;5412666;26;20565;-76
2024/04/11 01:07:35;;;;;;;6.17;2.07;;;;;;;6.05;100.00;97705.06;5416904;26;20255;-73
2024/04/11 01:10:01;;;;;;;4.20;1.87;;;;;;;6.01;100.00;97708.88;5410247;26;20298;-77
2024/04/11 01:12:29;;;;;;;3.40;1.77;;;;;;;6.07;100.00;97701.38;5409903;26;20234;-78
2024/04/11 01:14:55;;;;;;;2.60;1.50;;;;;;;6.07;100.00;97698.78;5410748;26;20276;-74
2024/04/11 01:17:23;;;;;;;2.77;1.97;;;;;;;6.11;100.00;97689.75;5418977;26;20225;-74
2024/04/11 01:19:52;;;;;;;2.07;1.53;;;;;;;6.25;100.00;97689.53;5407909;26;20274;-74
2024/04/11 01:22:20;;;;;;;4.13;1.90;;;;;;;6.02;100.00;97689.59;5410022;26;20268;-76
2024/04/11 01:24:49;;;;;;;2.27;1.67;;;;;;;6.13;100.00;97677.34;5421318;26;20307;-74
2024/04/11 01:27:17;;;;;;;4.40;2.10;;;;;;;5.93;100.00;97679.81;5410369;26;20391;-73
2024/04/11 01:29:42;;;;;;;3.87;1.77;;;;;;;6.03;100.00;97677.34;5410131;26;20274;-75
2024/04/11 01:32:11;;;;;;;3.83;2.43;;;;;;;6.09;100.00;97670.69;5415734;26;20724;-75
2024/04/11 01:34:36;;;;;;;4.43;1.77;;;;;;;6.12;100.00;97669.63;5414173;26;20755;-75
2024/04/11 01:37:05;;;;;;;2.83;1.73;;;;;;;5.93;100.00;97665.88;5413675;26;20313;-76
2024/04/11 01:39:31;;;;;;;2.37;1.80;;;;;;;6.02;100.00;97667.81;5407792;26;20729;-74
2024/04/11 01:42:04;;;;;;;2.57;2.00;;;;;;;6.14;100.00;97665.94;5404678;26;20731;-75
2024/04/11 01:44:31;;;;;;;3.43;1.70;;;;;;;5.87;100.00;97664.56;5410230;26;20222;-74
2024/04/11 01:46:59;;;;;;;4.93;1.73;;;;;;;5.97;100.00;97669.94;5401655;26;20230;-74
2024/04/11 01:49:24;;;;;;;3.70;1.83;;;;;;;5.91;100.00;97665.19;5407698;26;20282;-76
2024/04/11 01:51:53;;;;;;;2.20;1.63;;;;;;;5.85;100.00;97661.22;5399543;26;20603;-73
2024/04/11 01:54:19;;;;;;;3.13;2.00;;;;;;;5.86;100.00;97659.47;5400703;26;20721;-76
2024/04/11 01:56:47;;;;;;;2.53;1.83;;;;;;;5.89;100.00;97661.84;5410011;26;20467;-73
2024/04/11 01:59:16;;;;;;;3.07;1.70;;;;;;;5.95;100.00;97661.38;5406637;26;21120;-74
2024/04/11 02:01:45;;;;;;;3.90;2.20;;;;;;;5.89;100.00;97656.59;5421650;26;20230;-75
2024/04/11 02:04:10;;;;;;;2.60;1.57;;;;;;;5.86;100.00;97644.59;5409734;26;20231;-74
2024/04/11 02:06:39;;;;;;;2.13;1.97;;;;;;;5.92;100.00;97645.91;5416898;26;20326;-76
2024/04/11 02:09:09;;;;;;;2.10;1.70;;;;;;;5.90;100.00;97643.41;5414084;26;20300;-75
2024/04/11 02:11:38;;;;;;;3.43;2.10;;;;;;;5.80;100.00;97646.81;5414755;26;20286;-74
2024/04/11 02:14:03;;;;;;;2.73;1.80;;;;;;;5.75;100.00;97654.16;5404137;26;20295;-76
2024/04/11 02:16:36;;;;;;;3.30;1.73;;;;;;;5.92;100.00;97653.75;5410235;26;20241;-77
2024/04/11 02:19:06;;;;;;;3.13;1.97;;;;;;;5.85;100.00;97650.75;5409151;26;20269;-74
2024/04/11 02:21:34;;;;;;;2.30;1.90;;;;;;;5.70;100.00;97659.72;5409705;26;20281;-74
2024/04/11 02:24:00;;;;;;;2.70;1.67;;;;;;;5.81;100.00;97656.34;5417254;26;20353;-77
2024/04/11 02:26:29;;;;;;;3.23;1.77;;;;;;;5.72;100.00;97662.22;5411615;26;20270;-78
2024/04/11 02:28:55;;;;;;;5.87;2.50;;;;;;;5.73;100.00;97659.50;5405831;26;20273;-74
2024/04/11 02:31:23;;;;;;;6.63;2.47;;;;;;;5.71;100.00;97660.56;5409247;26;20265;-77
2024/04/11 02:33:53;;;;;;;3.37;2.03;;;;;;;5.65;100.00;97668.84;5408508;26;21443;-79
2024/04/11 02:36:22;;;;;;;6.33;2.23;;;;;;;5.48;100.00;97671.88;5414082;26;20272;-78
2024/04/11 02:38:47;;;;;;;2.97;2.20;;;;;;;5.46;100.00;97676.38;5404333;26;20231;-78
2024/04/11 02:41:16;;;;;;;4.37;2.07;;;;;;;5.47;100.00;97673.66;5404098;26;20376;-75
2024/04/11 02:43:41;;;;;;;5.23;2.73;;;;;;;5.43;100.00;97678.38;5416532;26;20291;-76
2024/04/11 02:46:15;;;;;;;8.37;2.73;;;;;;;5.56;100.00;97683.44;5415416;26;20502;-74
2024/04/11 02:48:41;;;;;;;6.07;2.67;;;;;;;5.64;100.00;97682.88;5396374;26;20262;-79
2024/04/11 02:51:11;;;;;;;4.33;2.30;;;;;;;5.67;100.00;97683.47;5412647;26;20231;-75
2024/04/11 02:53:38;;;;;;;2.83;1.83;;;;;;;5.39;100.00;97688.22;5411378;26;20729;-76
2024/04/11 02:56:07;;;;;;;3.17;2.00;;;;;;;5.55;100.00;97678.31;5412135;26;20301;-78
2024/04/11 02:58:33;;;;;;;2.87;2.00;;;;;;;5.50;100.00;97685.66;5404152;26;20230;-76
2024/04/11 03:01:01;;;;;;;3.43;2.13;;;;;;;5.57;100.00;97692.94;5410156;26;20237;-75
2024/04/11 03:03:27;;;;;;;3.13;1.97;;;;;;;5.52;100.00;97689.00;5419790;26;20326;-78
2024/04/11 03:05:55;;;;;;;3.47;2.23;;;;;;;5.52;100.00;97694.22;5405344;26;20231;-75
2024/04/11 03:08:23;;;;;;;5.23;2.20;;;;;;;5.55;100.00;97680.94;5421716;26;20558;-74
2024/04/11 03:10:52;;;;;;;4.07;2.30;;;;;;;5.56;100.00;97685.19;5413556;26;20589;-76
2024/04/11 03:13:19;;;;;;;5.43;1.93;;;;;;;5.55;100.00;97681.75;5414938;26;20230;-78
2024/04/11 03:15:48;;;;;;;4.67;2.27;;;;;;;5.41;100.00;97681.09;5410870;26;20333;-76
2024/04/11 03:18:15;;;;;;;3.80;2.30;;;;;;;5.39;100.00;97684.78;5405313;26;20345;-77
2024/04/11 03:20:54;;;;;;;4.67;2.37;;;;;;;5.01;100.00;97687.50;5409543;26;20844;-74
2024/04/11 03:23:19;;;;;;;3.80;2.50;;;;;;;5.13;100.00;97681.41;5411971;26;20229;-78
2024/04/11 03:25:50;;;;;;;4.23;2.00;;;;;;;5.38;100.00;97678.69;5406583;26;20275;-74
2024/04/11 03:28:16;;;;;;;4.13;2.00;;;;;;;5.30;100.00;97678.41;5405141;26;20786;-74
2024/04/11 03:30:54;;;;;;;2.90;2.10;;;;;;;5.49;100.00;97684.00;5414401;26;20333;-78
2024/04/11 03:33:21;;;;;;;4.03;2.50;;;;;;;5.43;100.00;97676.59;5403191;26;20358;-73
2024/04/11 03:35:56;;;;;;;3.53;2.33;;;;;;;5.45;100.00;97674.72;5413905;26;20694;-74
2024/04/11 03:38:22;;;;;;;5.83;1.93;;;;;;;5.31;100.00;97674.00;5407721;26;20422;-74
2024/04/11 03:40:58;;;;;;;4.93;2.40;;;;;;;5.45;100.00;97672.09;5410477;26;20284;-74
2024/04/11 03:43:27;;;;;;;3.50;2.10;;;;;;;5.14;100.00;97672.63;5411155;26;20651;-73
2024/04/11 03:45:55;;;;;;;6.53;2.50;;;;;;;5.03;100.00;97680.38;5415785;26;20539;-77
2024/04/11 03:48:25;;;;;;;4.57;2.23;;;;;;;5.00;100.00;97680.63;5413770;26;20646;-75
2024/04/11 03:50:50;;;;;;;4.87;2.73;;;;;;;4.95;100.00;97684.47;5400936;26;20596;-77
2024/04/11 03:53:18;;;;;;;4.87;2.83;;;;;;;4.78;100.00;97681.41;5414564;26;20230;-73
2024/04/11 03:55:44;;;;;;;2.97;1.87;;;;;;;4.97;100.00;97690.44;5407467;26;20327;-74
2024/04/11 03:58:16;;;;;;;4.97;2.47;;;;;;;5.19;100.00;97687.97;5415492;26;20241;-77
2024/04/11 04:00:45;;;;;;;4.47;2.43;;;;;;;5.14;100.00;97690.94;5408416;26;21090;-74
2024/04/11 04:03:13;;;;;;;5.67;2.80;;;;;;;5.16;100.00;97693.44;5414970;26;20702;-78
2024/04/11 04:05:40;;;;;;;6.77;2.60;;;;;;;5.23;100.00;97703.34;5411436;26;20233;-75
2024/04/11 04:08:09;;;;;;;6.83;2.67;;;;;;;5.21;100.00;97704.38;5417501;26;20636;-77
2024/04/11 04:10:37;;;;;;;4.93;2.57;;;;;;;5.06;100.00;97705.47;5416239;26;20711;-77
2024/04/11 04:13:04;;;;;;;7.37;2.83;;;;;;;5.18;100.00;97705.44;5402804;26;20343;-74
2024/04/11 04:15:35;;;;;;;4.80;3.03;;;;;;;5.20;100.00;97708.75;5409779;26;20789;-76
2024/04/11 04:18:03;;;;;;;4.87;2.40;;;;;;;4.84;100.00;97716.56;5406557;26;20638;-74
2024/04/11 04:20:31;;;;;;;4.33;2.23;;;;;;;5.15;100.00;97720.50;5414455;26;21384;-78
2024/04/11 04:22:57;;;;;;;5.97;2.90;;;;;;;5.25;100.00;97727.56;5414063;26;20243;-74
2024/04/11 04:25:27;;;;;;;5.90;2.57;;;;;;;5.21;100.00;97720.88;5410161;26;20309;-77
2024/04/11 04:27:53;;;;;;;5.90;2.87;;;;;;;5.21;100.00;97722.69;5410403;26;20305;-75
2024/04/11 04:30:22;;;;;;;4.67;2.67;;;;;;;5.22;100.00;97724.31;5409898;26;20631;-74
2024/04/11 04:32:51;;;;;;;4.80;2.80;;;;;;;5.31;100.00;97724.53;5410008;26;20590;-74
2024/04/11 04:35:19;;;;;;;3.30;2.30;;;;;;;5.27;100.00;97725.69;5411686;26;20230;-74
2024/04/11 04:37:45;;;;;;;3.90;2.40;;;;;;;5.14;100.00;97735.34;5410243;26;20242;-74
2024/04/11 04:40:14;;;;;;;4.20;2.40;;;;;;;5.11;100.00;97727.69;5413873;26;20786;-75
2024/04/11 04:42:39;;;;;;;4.90;2.80;;;;;;;4.96;100.00;97726.19;5412501;26;20581;-76
2024/04/11 04:45:09;;;;;;;5.37;2.90;;;;;;;4.80;100.00;97723.88;5412356;26;20294;-77
2024/04/11 04:47:35;;;;;;;5.70;3.10;;;;;;;4.90;100.00;97729.22;5414359;26;20231;-76
2024/04/11 04:50:06;;;;;;;3.20;2.40;;;;;;;5.04;100.00;97731.69;5414369;26;20309;-77
2024/04/11 04:52:32;;;;;;;4.43;2.30;;;;;;;5.13;100.00;97740.66;5414180;26;20673;-75
2024/04/11 04:55:00;;;;;;;3.27;2.37;;;;;;;5.09;100.00;97742.66;5406291;26;20271;-74
2024/04/11 04:57:26;;;;;;;3.97;2.00;;;;;;;5.15;100.00;97744.81;5408712;26;20227;-75
2024/04/11 04:59:54;;;;;;;3.50;2.53;;;;;;;5.18;100.00;97749.00;5416067;26;21544;-75
2024/04/11 05:02:20;;;;;;;3.93;2.40;;;;;;;5.17;100.00;97753.41;5416094;26;20237;-75
2024/04/11 05:04:49;;;;;;;3.97;2.60;;;;;;;5.11;100.00;97753.84;5411675;26;20329;-73
2024/04/11 05:07:20;;;;;;;3.77;2.33;;;;;;;5.34;100.00;97752.22;5415345;26;20234;-74
2024/04/11 05:09:48;;;;;;;3.77;2.40;;;;;;;5.31;100.00;97755.88;5405631;26;20841;-73
2024/04/11 05:12:13;;;;;;;3.17;2.20;;;;;;;5.32;100.00;97761.94;5413398;26;20238;-74
2024/04/11 05:14:45;;;;;;;2.80;2.10;;;;;;;5.34;100.00;97753.03;5412608;26;20229;-76
2024/04/11 05:17:11;;;;;;;4.20;2.30;;;;;;;5.36;100.00;97761.63;5409306;26;20227;-74
2024/04/11 05:19:41;;;;;;;5.63;2.50;;;;;;;5.40;100.00;97755.25;5414209;26;20235;-75
2024/04/11 05:22:08;;;;;;;5.73;3.20;;;;;;;5.49;100.00;97757.19;5412353;26;20234;-74
2024/04/11 05:24:40;;;;;;;7.00;3.17;;;;;;;5.67;100.00;97755.88;5410433;26;20231;-73
2024/04/11 05:27:08;;;;;;;4.73;2.80;;;;;;;5.59;100.00;97760.81;5412779;26;20572;-73
2024/04/11 05:29:36;;;;;;;2.97;2.03;;;;;;;5.53;100.00;97762.06;5418211;26;20269;-73
2024/04/11 05:32:04;;;;;;;6.33;2.63;;;;;;;5.60;100.00;97758.09;5405718;26;20326;-75
2024/04/11 05:34:32;;;;;;;3.73;2.40;;;;;;;5.63;100.00;97757.88;5412296;26;20235;-76
2024/04/11 05:36:58;;;;;;;4.40;2.53;;;;;;;5.71;100.00;97760.75;5414472;26;20230;-73
2024/04/11 05:39:26;;;;;;;6.23;2.10;;;;;;;5.73;100.00;97758.06;5408734;26;20246;-75
2024/04/11 05:41:58;;;;;;;3.40;2.43;;;;;;;5.96;100.00;97759.84;5414462;26;20234;-76
2024/04/11 05:44:24;;;;;;;4.23;2.57;;;;;;;5.86;100.00;97761.47;5415377;26;20219;-73
2024/04/11 05:46:53;;;;;;;5.90;2.83;;;;;;;6.11;100.00;97765.63;5419552;26;20238;-74
2024/04/11 05:49:20;;;;;;;5.97;2.67;;;;;;;6.21;100.00;97757.91;5420534;26;20218;-73
2024/04/11 05:51:48;;;;;;;4.43;2.60;;;;;;;6.34;100.00;97759.53;5410200;26;20289;-75
2024/04/11 05:54:16;;;;;;;3.87;2.43;;;;;;;6.49;100.00;97761.00;5411201;26;20227;-77
2024/04/11 05:56:44;;;;;;;4.50;2.87;;;;;;;6.56;100.00;97762.19;5411690;26;20290;-75
2024/04/11 05:59:12;;;;;;;6.27;2.60;;;;;;;6.71;100.00;97766.28;5420125;26;20355;-73
2024/04/11 06:01:40;;;;;;;4.30;2.53;;;;;;;6.72;100.00;97765.31;5416267;26;20306;-72
2024/04/11 06:04:06;;;;;;;3.27;2.30;;;;;;;6.83;100.00;97762.72;5427966;26;20682;-71
2024/04/11 06:06:34;;;;;;;4.17;2.83;;;;;;;6.96;100.00;97763.44;5425711;26;20288;-75
2024/04/11 06:09:00;;;;;;;4.17;2.37;;;;;;;7.05;100.00;97771.44;5428340;26;20353;-72
2024/04/11 06:11:29;;;;;;;8.57;3.13;;;;;;;7.13;100.00;97771.69;5422293;26;20286;-74
2024/04/11 06:13:55;;;;;;;5.37;2.90;;;;;;;7.30;100.00;97771.19;5431419;26;20667;-73
2024/04/11 06:16:25;;;;;;;4.70;2.47;;;;;;;7.52;100.00;97774.63;5426402;26;20319;-71
2024/04/11 06:18:54;;;;;;;3.83;2.50;;;;;;;7.52;100.00;97779.03;5418990;26;20878;-71
2024/04/11 06:21:31;;;;;;;3.73;2.43;;;;;;;7.58;100.00;97771.50;5421924;26;20985;-72
2024/04/11 06:23:58;;;;;;;4.30;2.57;;;;;;;7.63;100.00;97779.03;5415452;26;20218;-72
2024/04/11 06:26:26;;;;;;;3.47;2.33;;;;;;;7.84;100.00;97779.94;5445047;26;20218;-72
2024/04/11 06:28:51;;;;;;;3.80;2.80;;;;;;;7.99;100.00;97780.38;5431142;26;20230;-72
2024/04/11 06:31:24;;;;;;;7.23;2.63;;;;;;;8.20;100.00;97789.16;5418486;26;20343;-72
2024/04/11 06:33:53;;;;;;;6.40;2.67;;;;;;;8.45;100.00;97777.47;5443358;26;20331;-72
2024/04/11 06:36:21;;;;;;;3.77;2.30;;;;;;;8.47;100.00;97786.88;5432649;26;20262;-73
2024/04/11 06:38:48;;;;;;;4.00;2.40;;;;;;;8.62;100.00;97785.63;5430497;26;20363;-72
2024/04/11 06:41:19;;;;;;;4.27;2.07;;;;;;;8.66;100.00;97787.84;5423300;26;20250;-72
2024/04/11 06:43:45;;;;;;;2.47;1.87;;;;;;;8.86;100.00;97783.53;5427483;26;20226;-75
2024/04/11 06:46:14;;;;;;;3.90;2.37;;;;;;;8.86;100.00;97789.66;5429396;26;20234;-72
2024/04/11 06:48:40;;;;;;;3.33;2.03;;;;;;;9.17;100.00;97784.28;5420642;26;20339;-72
2024/04/11 06:51:12;;;;;;;4.47;2.47;;;;;;;9.12;100.00;97793.53;5422294;26;20254;-72
2024/04/11 06:53:43;;;;;;;3.30;2.07;;;;;;;9.09;100.00;97792.00;5425291;26;20273;-72
2024/04/11 06:56:15;;;;;;;5.03;1.90;;;;;;;9.08;100.00;97778.16;5414890;26;20785;-72
2024/04/11 06:58:45;;;;;;;4.13;2.20;;;;;;;9.29;100.00;97782.41;5424228;26;20265;-75
2024/04/11 07:01:15;;;;;;;6.10;2.03;;;;;;;9.53;100.00;97790.81;5423036;26;20227;-75
2024/04/11 07:03:44;;;;;;;4.10;2.20;;;;;;;9.55;100.00;97783.63;5420187;26;20336;-72
2024/04/11 07:06:21;;;;;;;5.40;2.10;;;;;;;9.80;100.00;97782.19;5425638;26;20394;-74
2024/04/11 07:08:52;;;;;;;4.23;2.50;;;;;;;9.92;100.00;97790.78;5413147;26;20264;-75
2024/04/11 07:11:27;;;;;;;4.27;1.90;;;;;;;9.91;100.00;97787.31;5415630;26;20345;-72
2024/04/11 07:13:57;;;;;;;5.33;2.33;;;;;;;10.09;100.00;97788.34;5414853;26;20750;-74
2024/04/11 07:16:26;;;;;;;3.90;2.23;;;;;;;10.26;100.00;97787.69;5412717;26;20943;-78
2024/04/11 07:18:57;;;;;;;3.93;2.23;;;;;;;10.24;100.00;97783.53;5416353;26;20336;-77
2024/04/11 07:21:28;;;;;;;3.80;2.30;;;;;;;10.46;100.00;97782.28;5413200;26;20235;-75
2024/04/11 07:23:59;;;;;;;3.77;2.00;;;;;;;10.43;100.00;97785.19;5414643;26;20230;-74
2024/04/11 07:26:29;;;;;;;3.33;2.10;;;;;;;10.58;100.00;97790.88;5427016;26;20325;-75
2024/04/11 07:28:59;;;;;;;5.70;2.20;;;;;;;10.58;100.00;97782.97;5416259;26;20776;-75
2024/04/11 07:31:25;;;;;;;4.50;2.03;;;;;;;10.75;100.00;97787.53;5417338;26;20282;-73
2024/04/11 07:33:55;;;;;;;4.57;2.30;;;;;;;10.92;100.00;97790.28;5419793;26;20319;-79
2024/04/11 07:36:22;;;;;;;5.87;2.73;;;;;;;10.96;100.00;97784.56;5417397;26;20310;-77
2024/04/11 07:38:57;;;;;;;5.47;2.47;;;;;;;11.19;100.00;97793.81;5421491;26;21078;-76
2024/04/11 07:41:24;;;;;;;10.00;2.40;;;;;;;11.24;100.00;97802.16;5414362;26;20342;-73
2024/04/11 07:43:55;;;;;;;3.37;2.10;;;;;;;11.55;100.00;97793.03;5416176;26;20804;-77
2024/04/11 07:46:28;;;;;;;4.93;2.50;;;;;;;11.65;100.00;97799.94;5420566;26;20226;-75
2024/04/11 07:48:58;;;;;;;3.73;2.30;;;;;;;11.76;100.00;97801.53;5421595;26;20651;-77
2024/04/11 07:51:24;;;;;;;4.87;2.10;;;;;;;11.75;100.00;97795.44;5427147;26;20720;-72
2024/04/11 07:53:56;;;;;;;3.83;2.50;;;;;;;12.10;100.00;97795.50;5423255;26;20285;-72
2024/04/11 07:56:23;;;;;;;9.33;2.60;;;;;;;11.96;100.00;97801.28;5428369;26;20227;-72
2024/04/11 07:58:53;;;;;;;6.23;2.40;;;;;;;12.10;100.00;97795.50;5419960;26;20242;-73
2024/04/11 08:01:22;;;;;;;6.90;1.90;;;;;;;12.20;100.00;97801.56;5425717;26;20234;-72
2024/04/11 08:03:51;;;;;;;3.70;2.10;;;;;;;12.30;100.00;97811.09;5427149;26;20951;-73
2024/04/11 08:06:16;;;;;;;7.37;2.50;;;;;;;12.35;100.00;97808.84;5428376;26;20690;-73
2024/04/11 08:08:45;;;;;;;3.03;2.00;;;;;;;12.44;100.00;97802.66;5432852;26;20237;-74
2024/04/11 08:11:15;;;;;;;3.83;1.80;;;;;;;12.62;100.00;97808.78;5421967;26;20254;-76
2024/04/11 08:13:43;;;;;;;2.77;1.90;;;;;;;12.47;100.00;97817.38;5418490;26;20234;-76
2024/04/11 08:16:10;;;;;;;3.47;2.10;;;;;;;12.62;100.00;97819.34;5420429;26;20285;-73
2024/04/11 08:18:38;;;;;;;3.77;2.07;;;;;;;12.73;100.00;97819.13;5413148;26;21514;-76
2024/04/11 08:21:08;;;;;;;2.17;1.67;;;;;;;13.03;100.00;97830.16;5419711;26;20350;-72
2024/04/11 08:23:37;;;;;;;2.50;1.40;;;;;;;13.16;100.00;97825.31;5429298;26;20234;-73
2024/04/11 08:26:03;;;;;;;6.37;1.90;;;;;;;12.93;100.00;97832.06;5418271;26;20274;-74
2024/04/11 08:28:37;;;;;;;2.17;1.80;;;;;;;13.17;100.00;97826.13;5420524;26;20243;-75
2024/04/11 08:31:03;;;;;;;3.27;1.40;;;;;;;13.29;100.00;97825.72;5416166;26;21016;-76
2024/04/11 08:33:31;;;;;;;2.47;1.53;;;;;;;13.39;100.00;97832.56;5423779;26;20278;-77
2024/04/11 08:35:57;;;;;;;1.97;1.47;;;;;;;13.60;95.95;97843.63;5417211;26;20286;-74
2024/04/11 08:38:26;;;;;;;2.20;1.73;;;;;;;13.51;93.87;97844.56;5411661;26;20909;-75
2024/04/11 08:40:52;;;;;;;2.63;1.70;;;;;;;13.44;97.15;97838.25;5408893;26;20230;-77
2024/04/11 08:43:20;;;;;;;3.83;1.37;;;;;;;13.76;97.79;97837.56;5411101;26;20283;-73
2024/04/11 08:45:48;;;;;;;1.80;1.50;;;;;;;13.95;97.63;97840.84;5415661;26;20689;-73
2024/04/11 08:48:16;;;;;;;3.93;1.40;;;;;;;13.94;93.57;97840.97;5412109;26;20293;-75
2024/04/11 08:50:44;;;;;;;1.75;1.10;;;;;;;13.92;92.81;97841.13;5406179;26;20344;-74
2024/04/11 08:53:13;;;;;;;1.88;1.50;;;;;;;13.97;100.00;97848.63;5410934;26;20270;-75
2024/04/11 08:55:40;;;;;;;1.38;1.27;;;;;;;13.94;93.84;97849.78;5416699;26;20269;-74
2024/04/11 08:58:09;;;;;;;2.13;1.52;;;;;;;13.82;88.83;97840.41;5414220;26;20230;-77
2024/04/11 09:00:39;;;;;;;2.10;1.50;;;;;;;14.00;95.41;97842.00;5410333;26;20250;-73
2024/04/11 09:03:13;;;;;;;2.47;1.55;;;;;;;13.97;94.88;97851.28;5406066;26;20231;-73
2024/04/11 09:05:38;;;;;;;6.55;2.00;;;;;;;13.91;92.91;97843.94;5415045;26;20651;-74
2024/04/11 09:08:10;;;;;;;2.45;1.40;;;;;;;14.20;90.61;97839.97;5418180;26;20234;-73
2024/04/11 09:10:36;;;;;;;3.85;2.08;;;;;;;14.08;90.53;97841.25;5413664;26;20230;-75
2024/04/11 09:13:06;;;;;;;6.00;2.10;;;;;;;13.85;90.36;97837.47;5417163;26;20230;-74
2024/04/11 09:15:32;;;;;;;2.13;1.55;;;;;;;14.00;90.12;97831.41;5416943;26;20610;-78
2024/04/11 09:18:00;;;;;;;4.32;2.10;;;;;;;14.23;95.52;97829.03;5421997;26;20229;-75
2024/04/11 09:20:32;;;;;;;2.85;1.50;;;;;;;14.57;91.37;97833.25;5411065;26;20238;-76
2024/04/11 09:23:02;;;;;;;5.93;2.03;;;;;;;14.59;87.53;97835.75;5420874;26;20323;-73
2024/04/11 09:25:30;;;;;;;4.07;1.90;;;;;;;14.61;84.22;97831.13;5408565;26;20226;-75
2024/04/11 09:27:59;;;;;;;2.80;1.52;;;;;;;14.83;93.79;97833.97;5424587;26;20229;-78
2024/04/11 09:30:29;;;;;;;3.35;1.52;;;;;;;14.97;86.87;97828.84;5402556;26;20732;-73
2024/04/11 09:33:04;;;;;;;3.70;1.67;;;;;;;15.07;90.92;97826.84;5413088;26;20272;-74
2024/04/11 09:35:40;;;;;;;3.10;1.58;;;;;;;15.26;84.23;97818.56;5414477;26;20561;-76
2024/04/11 09:38:12;;;;;;;2.30;1.02;;;;;;;15.52;83.83;97821.84;5415639;26;20590;-73
2024/04/11 09:40:43;;;;;;;1.55;1.10;;;;;;;15.46;81.42;97830.50;5406095;26;20565;-77
2024/04/11 09:43:15;;;;;;;3.17;1.35;;;;;;;15.47;77.28;97827.66;5411343;26;20231;-73
2024/04/11 09:45:50;;;;;;;3.45;1.30;;;;;;;15.63;71.50;97829.47;5407211;26;20226;-72
2024/04/11 09:48:21;;;;;;;3.53;1.52;;;;;;;15.45;72.17;97832.34;5414712;26;20237;-73
2024/04/11 09:50:51;;;;;;;2.47;1.23;;;;;;;15.27;70.27;97833.50;5409435;26;20724;-74
2024/04/11 09:53:28;;;;;;;4.40;1.10;;;;;;;15.41;69.31;97835.47;5407338;26;20247;-73
2024/04/11 09:55:54;;;;;;;3.83;1.20;;;;;;;15.42;68.67;97840.63;5416727;26;20225;-74
2024/04/11 09:58:25;;;;;;;2.80;1.25;;;;;;;15.40;75.59;97823.19;5405503;26;20231;-78
2024/04/11 10:01:04;;;;;;;4.13;1.25;;;;;;;15.41;75.84;97827.50;5419217;26;20260;-73
2024/04/11 10:03:33;;;;;;;2.13;1.42;;;;;;;15.59;76.33;97828.13;5409336;26;20226;-74
2024/04/11 10:06:04;;;;;;;2.30;1.17;;;;;;;15.88;71.74;97834.53;5413274;26;20222;-74
2024/04/11 10:08:36;;;;;;;2.17;1.20;;;;;;;16.13;66.96;97836.94;5415583;26;20272;-75
2024/04/11 10:11:03;;;;;;;3.00;1.67;;;;;;;15.99;70.26;97829.69;5418864;26;20710;-72
2024/04/11 10:13:39;;;;;;;1.88;1.02;;;;;;;16.01;66.28;97833.00;5416525;26;20283;-74
2024/04/11 10:16:05;;;;;;;1.90;1.17;;;;;;;16.00;74.64;97825.22;5416668;26;20230;-75
2024/04/11 10:18:45;;;;;;;1.20;0.98;;;;;;;16.29;69.05;97836.88;5406430;26;20223;-72
2024/04/11 10:21:24;;;;;;;3.70;1.00;;;;;;;16.23;67.88;97837.56;5419256;26;20313;-76
2024/04/11 10:23:52;;;;;;;1.67;1.08;;;;;;;16.38;67.39;97838.53;5418840;26;20585;-75
2024/04/11 10:26:29;;;;;;;2.72;1.35;;;;;;;16.64;63.67;97829.22;5408810;26;20909;-75
2024/04/11 10:28:57;;;;;;;1.63;1.50;;;;;;;16.46;63.91;97830.50;5411379;26;20273;-75
2024/04/11 10:31:25;;;;;;;1.67;1.27;;;;;;;16.44;63.40;97824.50;5411005;26;20230;-73
2024/04/11 10:33:58;;;;;;;1.00;0.90;;;;;;;16.50;66.10;97826.47;5412599;26;20274;-78
2024/04/11 10:36:32;;;;;;;5.22;1.20;;;;;;;16.78;69.05;97824.97;5407130;26;20331;-72
2024/04/11 10:39:00;;;;;;;3.90;1.60;;;;;;;16.72;68.69;97831.00;5406446;26;20229;-74
2024/04/11 10:41:28;;;;;;;2.22;1.70;;;;;;;16.53;65.75;97836.78;5413539;26;20270;-72
2024/04/11 10:43:56;;;;;;;3.33;1.15;;;;;;;16.48;67.61;97833.81;5409024;26;20297;-76
2024/04/11 10:46:23;;;;;;;4.65;1.50;;;;;;;16.37;64.23;97836.88;5423616;26;20326;-74
2024/04/11 10:48:52;;;;;;;2.83;1.50;;;;;;;16.82;71.07;97842.25;5417744;26;20971;-76
2024/04/11 10:51:20;;;;;;;4.43;1.45;;;;;;;16.83;66.36;97835.94;5411604;26;20233;-73
2024/04/11 10:54:09;;;;;;;3.83;1.40;;;;;;;16.95;61.60;97831.84;5412901;26;20227;-74
2024/04/11 10:56:36;;;;;;;1.65;1.27;;;;;;;17.19;62.31;97830.63;5419688;26;20234;-72
2024/04/11 10:59:12;;;;;;;2.80;1.13;;;;;;;16.92;60.99;97830.34;5421221;26;20761;-72
2024/04/11 11:01:41;;;;;;;2.38;1.33;;;;;;;17.25;59.87;97831.81;5421506;26;20270;-75
2024/04/11 11:04:09;;;;;;;2.53;1.40;;;;;;;17.42;65.13;97836.78;5416442;26;20294;-73
2024/04/11 11:06:44;;;;;;;2.60;1.27;;;;;;;17.75;62.96;97830.94;5415474;26;20324;-74
2024/04/11 11:09:19;;;;;;;2.53;1.25;;;;;;;17.40;61.86;97828.16;5410838;26;21574;-74
2024/04/11 11:11:46;;;;;;;7.20;2.28;;;;;;;17.61;63.39;97822.94;5415182;26;20344;-72
2024/04/11 11:14:17;;;;;;;1.80;1.25;;;;;;;17.68;61.93;97826.56;5417302;26;20225;-78
2024/04/11 11:16:44;;;;;;;2.70;1.50;;;;;;;17.90;69.76;97825.63;5414805;26;20296;-74
2024/04/11 11:19:13;;;;;;;2.45;1.40;;;;;;;18.18;62.56;97829.34;5413035;26;20233;-71
2024/04/11 11:21:42;;;;;;;2.53;1.45;;;;;;;18.33;63.63;97826.47;5413522;26;20293;-74
2024/04/11 11:24:14;;;;;;;5.60;1.45;;;;;;;18.66;59.08;97825.00;5420437;26;20340;-73
2024/04/11 11:26:46;;;;;;;2.53;1.70;;;;;;;17.84;58.73;97826.38;5406144;26;20598;-73
2024/04/11 11:29:20;;;;;;;2.10;1.30;;;;;;;17.10;60.86;97822.88;5404673;26;20231;-77
2024/04/11 11:31:50;;;;;;;3.25;1.38;;;;;;;17.26;63.57;97818.28;5408531;26;20353;-74
2024/04/11 11:34:27;;;;;;;1.95;1.75;;;;;;;17.06;66.76;97815.44;5408054;26;20285;-73
2024/04/11 11:36:59;;;;;;;3.03;1.83;;;;;;;17.07;66.10;97820.59;5408207;26;20276;-77
2024/04/11 11:39:28;;;;;;;3.50;1.65;;;;;;;17.49;66.92;97813.75;5399625;26;20301;-75